Track Павлов Дмитрий

Time Latitude Longitude Accuracy (66% radius in meters) Altitude (meters) Speed (km/hour) Bearing (degrees) Battery (%) GPS flag
06:57:30 57.203771 60.118909 3.2160000801086 329 0 0 96 1 delete
06:57:19 57.203784 60.118905 3.2160000801086 326 0.52999997138977 156.39999389648 96 1 delete
06:57:09 57.203783 60.118894 3.2160000801086 326 0 0 96 1 delete
06:56:59 57.203784 60.118894 3.2160000801086 326 0 0 96 1 delete
06:56:48 57.203784 60.118894 3.2160000801086 326 0 0 96 1 delete
06:56:38 57.203784 60.118895 3.2160000801086 326 0 0 96 1 delete
06:56:28 57.203784 60.118895 3.2160000801086 326 0 0 96 1 delete
06:56:17 57.203784 60.118895 3.2160000801086 326 0 0 96 1 delete
06:56:07 57.203784 60.118895 3.2160000801086 326 0 0 96 1 delete
06:55:57 57.203784 60.118895 3.2160000801086 326 0 0 96 1 delete
06:55:46 57.203784 60.118896 3.2160000801086 326 0 0 96 1 delete
06:55:36 57.203784 60.118895 3.2160000801086 326 0 0 96 1 delete
06:55:26 57.203783 60.118915 3.2160000801086 326 0 0 96 1 delete
06:55:15 57.203773 60.118912 3.2160000801086 325 0 0 96 1 delete
06:55:05 57.203773 60.118913 3.2160000801086 325 0 0 96 1 delete
06:54:55 57.203773 60.118914 3.2160000801086 325 0 0 96 1 delete
06:54:45 57.203769 60.118918 3.2160000801086 325 0 0 96 1 delete
06:54:42 57.203765 60.118922 3.2160000801086 326 0 0 96 1 delete
06:54:34 57.203710 60.118947 3.2160000801086 326 1.0599999427795 19.5 96 1 delete
06:54:27 57.203682 60.118986 3.2160000801086 326 1.3400000333786 331.5 96 1 delete
06:54:23 57.203619 60.119049 4.2880001068115 328 3.2300000190735 338.79998779297 96 1 delete
06:54:22 57.203591 60.119063 4.2880001068115 328 3.2300000190735 338.10000610352 96 1 delete
06:54:18 57.203490 60.119156 4.2880001068115 326 3.0799999237061 317.89999389648 96 1 delete
06:54:15 57.203415 60.119257 4.2880001068115 326 3.6900000572205 332 96 1 delete
06:54:12 57.203323 60.119326 4.2880001068115 327 3.9100000858307 330.20001220703 96 1 delete
06:54:09 57.203232 60.119431 5.3600001335144 329 3.9200000762939 324.29998779297 96 1 delete
06:54:06 57.203145 60.119528 5.3600001335144 329 3.1600000858307 337.79998779297 96 1 delete
06:54:02 57.203061 60.119634 4.2880001068115 329 3.2000000476837 331.10000610352 96 1 delete
06:54:01 57.203038 60.119658 4.2880001068115 329 3.2799999713898 332.20001220703 96 1 delete
06:53:58 57.202969 60.119758 4.2880001068115 331 3.7699999809265 330.70001220703 96 1 delete
06:53:55 57.202878 60.119874 4.2880001068115 330 5.5100002288818 332.89999389648 96 1 delete
06:53:53 57.202796 60.119961 4.2880001068115 330 5.6799998283386 328.79998779297 96 1 delete
06:53:51 57.202692 60.120059 5.3600001335144 333 5.6799998283386 336.29998779297 96 1 delete
06:53:50 57.202627 60.120106 4.2880001068115 332 5.9000000953674 341.10000610352 96 1 delete
06:53:49 57.202575 60.120112 5.3600001335144 330 5.4000000953674 339.79998779297 96 1 delete
06:53:47 57.202457 60.120201 5.3600001335144 333 2.7599999904633 303.70001220703 96 1 delete
06:53:43 57.202405 60.120384 3.2160000801086 333 1.7699999809265 269.60000610352 96 1 delete
06:53:40 57.202403 60.120503 4.2880001068115 334 1.3300000429153 240.60000610352 96 1 delete
06:53:37 57.202413 60.120565 4.2880001068115 334 1.3200000524521 247.30000305176 96 1 delete
06:53:30 57.202427 60.120748 4.2880001068115 334 1.7799999713898 265.29998779297 96 1 delete
06:53:29 57.202430 60.120777 5.3600001335144 334 1.4099999666214 255.39999389648 96 1 delete
06:53:23 57.202437 60.120935 6.4320001602173 333 1.9199999570847 287.20001220703 96 1 delete
06:53:18 57.202415 60.121073 4.2880001068115 332 1.6399999856949 294.89999389648 96 1 delete
06:53:16 57.202402 60.121112 4.2880001068115 330 1.710000038147 311.10000610352 96 1 delete
06:53:10 57.202363 60.121288 4.2880001068115 328 1.8300000429153 284.60000610352 96 1 delete
06:53:07 57.202351 60.121368 3.2160000801086 328 1.6699999570847 277.39999389648 96 1 delete
06:53:01 57.202344 60.121458 5.3600001335144 329 1.8700000047684 300.79998779297 96 1 delete
06:52:57 57.202339 60.121548 5.3600001335144 332 1.3799999952316 285.70001220703 96 1 delete
06:52:54 57.202322 60.121646 5.3600001335144 340 2 269.60000610352 96 1 delete
06:52:48 57.202282 60.121812 6.4320001602173 327 2.2000000476837 282.10000610352 96 1 delete